createdAt,value
2019-01-20T00:00:23.775Z,13.40
2019-01-20T00:01:24.404Z,14.00
2019-01-20T00:02:24.441Z,14.70
2019-01-20T00:03:24.698Z,11.80
2019-01-20T00:04:25.097Z,15.60
2019-01-20T00:05:25.691Z,15.90
2019-01-20T00:06:25.816Z,13.40
2019-01-20T00:07:26.113Z,14.90
2019-01-20T00:08:26.389Z,15.40
2019-01-20T00:09:26.507Z,13.70
2019-01-20T00:10:26.615Z,14.60
2019-01-20T00:11:26.818Z,14.00
2019-01-20T00:12:27.134Z,13.30
2019-01-20T00:13:27.237Z,12.00
2019-01-20T00:14:27.388Z,15.20
2019-01-20T00:15:27.484Z,13.00
2019-01-20T00:16:27.642Z,13.40
2019-01-20T00:17:27.928Z,15.90
2019-01-20T00:18:28.016Z,12.30
2019-01-20T00:19:28.109Z,12.50
2019-01-20T00:20:28.357Z,16.00
2019-01-20T00:21:28.489Z,15.80
2019-01-20T00:22:28.737Z,15.30
2019-01-20T00:23:28.879Z,13.60
2019-01-20T00:24:28.975Z,14.20
2019-01-20T00:25:29.072Z,14.20
2019-01-20T00:26:29.358Z,12.90
2019-01-20T00:27:29.584Z,11.60
2019-01-20T00:28:29.677Z,14.20
2019-01-20T00:29:29.845Z,12.90
2019-01-20T00:30:33.714Z,13.10
2019-01-20T00:31:30.017Z,15.30
2019-01-20T00:32:30.212Z,14.40
2019-01-20T00:33:30.284Z,14.10
2019-01-20T00:34:30.339Z,15.80
2019-01-20T00:35:30.456Z,15.60
2019-01-20T00:36:30.761Z,15.70
2019-01-20T00:37:30.832Z,17.10
2019-01-20T00:38:38.419Z,13.60
2019-01-20T00:39:38.730Z,11.80
2019-01-20T00:40:38.759Z,12.60
2019-01-20T00:41:39.056Z,13.00
2019-01-20T00:42:39.368Z,13.60
2019-01-20T00:43:39.721Z,14.20
2019-01-20T00:44:40.378Z,11.40
2019-01-20T00:45:40.597Z,14.40
2019-01-20T00:46:41.619Z,14.60
2019-01-20T00:47:42.238Z,16.00
2019-01-20T00:48:42.348Z,12.90
2019-01-20T00:49:42.765Z,13.70
2019-01-20T00:50:43.292Z,13.70
2019-01-20T00:51:43.287Z,14.80
2019-01-20T00:52:42.992Z,13.50
2019-01-20T00:53:43.263Z,13.10
2019-01-20T00:54:43.617Z,13.20
2019-01-20T00:55:43.836Z,16.10
2019-01-20T00:56:44.039Z,12.70
2019-01-20T00:57:44.245Z,15.00
2019-01-20T00:58:44.156Z,14.30
2019-01-20T00:59:44.569Z,13.90
2019-01-20T01:00:44.780Z,14.40
2019-01-20T01:01:45.199Z,11.90
2019-01-20T01:02:45.641Z,11.80
2019-01-20T01:03:45.814Z,13.10
2019-01-20T01:04:45.977Z,14.00
2019-01-20T01:05:46.566Z,13.10
2019-01-20T01:06:46.317Z,14.10
2019-01-20T01:07:46.378Z,12.60
2019-01-20T01:08:46.448Z,12.30
2019-01-20T01:09:46.551Z,12.70
2019-01-20T01:10:46.909Z,15.50
2019-01-20T01:11:46.706Z,13.30
2019-01-20T01:12:47.413Z,13.10
2019-01-20T01:13:47.478Z,11.40
2019-01-20T01:14:47.781Z,12.80
2019-01-20T01:15:48.215Z,13.30
2019-01-20T01:16:49.016Z,13.40
2019-01-20T01:17:48.825Z,13.00
2019-01-20T01:18:49.310Z,13.80
2019-01-20T01:19:49.655Z,11.60
2019-01-20T01:20:49.991Z,11.90
2019-01-20T01:21:50.301Z,13.50
2019-01-20T01:22:50.955Z,13.20
2019-01-20T01:23:50.815Z,12.30
2019-01-20T01:24:51.122Z,13.50
2019-01-20T01:25:51.802Z,11.80
2019-01-20T01:26:51.645Z,12.30
2019-01-20T01:27:52.012Z,12.50
2019-01-20T01:28:52.657Z,12.80
2019-01-20T01:29:52.699Z,11.40
2019-01-20T01:30:52.654Z,10.90
2019-01-20T01:31:53.017Z,11.10
2019-01-20T01:32:53.496Z,11.10
2019-01-20T01:33:53.773Z,13.20
2019-01-20T01:34:54.157Z,12.20
2019-01-20T01:35:54.469Z,11.30
2019-01-20T01:36:54.797Z,11.60
2019-01-20T01:37:55.575Z,12.70
2019-01-20T01:38:56.300Z,10.80
2019-01-20T01:39:56.615Z,11.20
2019-01-20T01:40:57.132Z,13.60
2019-01-20T01:41:57.076Z,11.10
2019-01-20T01:42:57.451Z,12.40
2019-01-20T01:43:57.963Z,11.60
2019-01-20T01:44:57.837Z,12.40
2019-01-20T01:45:58.401Z,12.60
2019-01-20T01:46:58.156Z,12.40
2019-01-20T01:47:58.713Z,12.40
2019-01-20T01:48:58.309Z,10.90
2019-01-20T01:49:58.255Z,11.20
2019-01-20T01:50:59.135Z,11.40
2019-01-20T01:51:59.165Z,12.80
2019-01-20T01:52:59.157Z,10.10
2019-01-20T01:53:59.359Z,12.30
2019-01-20T01:54:59.748Z,11.80
2019-01-20T01:56:00.072Z,11.40
2019-01-20T01:57:00.651Z,11.80
2019-01-20T01:58:00.527Z,13.10
2019-01-20T01:59:00.934Z,11.70
2019-01-20T02:00:01.453Z,12.10
2019-01-20T02:01:02.057Z,11.60
2019-01-20T02:02:01.883Z,11.30
2019-01-20T02:03:02.265Z,11.80
2019-01-20T02:04:02.199Z,11.30
2019-01-20T02:05:02.701Z,11.50
2019-01-20T02:06:02.715Z,12.40
2019-01-20T02:07:03.020Z,13.90
2019-01-20T02:08:03.308Z,11.50
2019-01-20T02:09:03.732Z,12.90
2019-01-20T02:10:03.758Z,11.50
2019-01-20T02:11:04.285Z,10.10
2019-01-20T02:12:04.151Z,10.70
2019-01-20T02:13:04.776Z,14.10
2019-01-20T02:14:04.648Z,13.40
2019-01-20T02:15:04.962Z,12.10
2019-01-20T02:16:05.068Z,13.00
2019-01-20T02:17:05.556Z,11.50
2019-01-20T02:18:06.287Z,13.00
2019-01-20T02:19:06.116Z,12.00
2019-01-20T02:20:06.750Z,13.90
2019-01-20T02:21:06.778Z,13.10
2019-01-20T02:22:06.669Z,13.20
2019-01-20T02:23:07.047Z,13.40
2019-01-20T02:24:07.422Z,14.50
2019-01-20T02:25:07.676Z,13.30
2019-01-20T02:26:08.015Z,13.70
2019-01-20T02:27:08.670Z,12.90
2019-01-20T02:28:08.564Z,12.40
2019-01-20T02:29:09.022Z,13.00
2019-01-20T02:30:09.293Z,13.70
2019-01-20T02:31:09.456Z,13.30
2019-01-20T02:32:09.703Z,10.60
2019-01-20T02:33:10.271Z,12.70
2019-01-20T02:34:10.327Z,11.90
2019-01-20T02:35:10.592Z,12.00
2019-01-20T02:36:11.212Z,11.30
2019-01-20T02:37:11.628Z,12.70
2019-01-20T02:38:11.945Z,13.60
2019-01-20T02:39:12.365Z,13.60
2019-01-20T02:40:12.879Z,10.70
2019-01-20T02:41:12.763Z,13.10
2019-01-20T02:42:13.063Z,12.30
2019-01-20T02:43:13.203Z,11.40
2019-01-20T02:44:13.522Z,12.50
2019-01-20T02:45:13.829Z,11.90
2019-01-20T02:46:13.937Z,13.20
2019-01-20T02:47:14.356Z,14.40
2019-01-20T02:48:14.261Z,11.50
2019-01-20T02:49:14.452Z,13.60
2019-01-20T02:50:15.013Z,13.50
2019-01-20T02:51:14.724Z,12.70
2019-01-20T02:52:15.209Z,14.30
2019-01-20T02:53:15.523Z,13.90
2019-01-20T02:54:16.019Z,11.80
2019-01-20T02:55:16.161Z,12.40
2019-01-20T02:56:16.226Z,13.60
2019-01-20T02:57:16.201Z,13.10
2019-01-20T02:58:16.549Z,11.00
2019-01-20T02:59:16.812Z,14.50
2019-01-20T03:00:17.722Z,11.90
2019-01-20T03:01:17.699Z,11.10
2019-01-20T03:02:17.924Z,11.20
2019-01-20T03:03:17.762Z,15.10
2019-01-20T03:04:18.086Z,13.40
2019-01-20T03:05:18.867Z,12.30
2019-01-20T03:06:18.810Z,13.50
2019-01-20T03:07:19.116Z,11.30
2019-01-20T03:08:19.595Z,11.20
2019-01-20T03:09:19.854Z,13.00
2019-01-20T03:10:20.544Z,11.60
2019-01-20T03:11:20.393Z,11.30
2019-01-20T03:12:20.792Z,11.80
2019-01-20T03:13:21.354Z,12.10
2019-01-20T03:14:21.235Z,14.30
2019-01-20T03:15:21.544Z,14.20
2019-01-20T03:16:22.273Z,11.00
2019-01-20T03:17:22.172Z,12.40
2019-01-20T03:18:22.496Z,11.70
2019-01-20T03:19:22.844Z,13.90
2019-01-20T03:20:23.244Z,13.20
2019-01-20T03:21:23.528Z,12.60
2019-01-20T03:23:23.942Z,12.90
2019-01-20T03:24:24.290Z,14.80
2019-01-20T03:25:24.575Z,12.90
2019-01-20T03:26:24.880Z,12.70
2019-01-20T03:27:25.881Z,11.40
2019-01-20T03:28:25.679Z,13.30
2019-01-20T03:29:26.408Z,13.90
2019-01-20T03:30:26.530Z,15.60
2019-01-20T03:31:27.023Z,13.50
2019-01-20T03:32:27.660Z,13.80
2019-01-20T03:33:27.659Z,15.10
2019-01-20T03:34:27.560Z,10.90
2019-01-20T03:35:28.097Z,13.00
2019-01-20T03:36:27.990Z,13.60
2019-01-20T03:37:28.499Z,12.50
2019-01-20T03:38:28.097Z,14.60
2019-01-20T03:39:28.317Z,14.50
2019-01-20T03:40:28.632Z,14.50
2019-01-20T03:41:28.935Z,14.10
2019-01-20T03:42:29.148Z,14.50
2019-01-20T03:43:29.137Z,15.00
2019-01-20T03:44:29.470Z,13.10
2019-01-20T03:45:29.997Z,12.80
2019-01-20T03:46:29.993Z,15.20
2019-01-20T03:47:30.308Z,14.70
2019-01-20T03:48:30.512Z,13.40
2019-01-20T03:49:30.705Z,14.60
2019-01-20T03:50:31.004Z,13.70
2019-01-20T03:51:31.452Z,12.20
2019-01-20T03:52:31.535Z,11.90
2019-01-20T03:53:31.678Z,13.40
2019-01-20T03:54:31.708Z,11.70
2019-01-20T03:55:31.791Z,13.20
2019-01-20T03:56:31.780Z,13.70
2019-01-20T03:57:32.123Z,14.00
2019-01-20T03:58:32.473Z,12.60
2019-01-20T03:59:32.771Z,12.80
2019-01-20T04:00:33.116Z,14.00
2019-01-20T04:01:33.676Z,12.30
2019-01-20T04:02:33.665Z,12.90
2019-01-20T04:03:34.035Z,15.70
2019-01-20T04:04:34.351Z,12.90
2019-01-20T04:05:34.664Z,12.70
2019-01-20T04:06:34.985Z,13.30
2019-01-20T04:07:35.294Z,12.70
2019-01-20T04:08:35.644Z,14.50
2019-01-20T04:09:35.923Z,15.20
2019-01-20T04:10:36.233Z,15.20
2019-01-20T04:11:36.826Z,12.70
2019-01-20T04:12:36.704Z,13.70
2019-01-20T04:13:37.074Z,12.40
2019-01-20T04:14:37.449Z,14.80
2019-01-20T04:15:37.983Z,15.40
2019-01-20T04:16:37.973Z,13.80
2019-01-20T04:17:38.234Z,13.20
2019-01-20T04:18:38.507Z,14.90
2019-01-20T04:19:38.869Z,15.40
2019-01-20T04:20:39.365Z,15.80
2019-01-20T04:21:39.744Z,14.80
2019-01-20T04:22:40.370Z,17.20
2019-01-20T04:23:40.684Z,13.60
2019-01-20T04:24:41.319Z,13.00
2019-01-20T04:25:41.313Z,13.50
2019-01-20T04:26:41.956Z,13.40
2019-01-20T04:27:42.245Z,12.10
2019-01-20T04:28:42.765Z,13.50
2019-01-20T04:29:42.669Z,12.20
2019-01-20T04:30:43.085Z,12.60
2019-01-20T04:31:43.407Z,14.10
2019-01-20T04:32:43.503Z,12.80
2019-01-20T04:33:43.924Z,16.00
2019-01-20T04:34:44.135Z,13.60
2019-01-20T04:35:44.239Z,12.80
2019-01-20T04:36:44.360Z,13.20
2019-01-20T04:37:44.454Z,13.00
2019-01-20T04:38:44.645Z,13.40
2019-01-20T04:39:44.514Z,14.70
2019-01-20T04:40:44.664Z,14.60
2019-01-20T04:41:44.763Z,13.30
2019-01-20T04:42:44.998Z,14.10
2019-01-20T04:43:45.216Z,13.70
2019-01-20T04:44:45.624Z,12.60
2019-01-20T04:45:45.826Z,14.50
2019-01-20T04:46:45.979Z,12.50
2019-01-20T04:47:45.927Z,13.80
2019-01-20T04:48:47.093Z,15.90
2019-01-20T04:49:46.438Z,13.70
2019-01-20T04:50:46.951Z,15.40
2019-01-20T04:51:46.839Z,17.80
2019-01-20T04:53:47.640Z,15.60
2019-01-20T04:54:47.923Z,13.80
2019-01-20T04:55:47.808Z,14.80
2019-01-20T04:56:48.336Z,14.20
2019-01-20T04:57:48.252Z,13.90
2019-01-20T04:58:48.396Z,14.80
2019-01-20T04:59:48.734Z,16.80
2019-01-20T05:00:49.133Z,13.50
2019-01-20T05:01:49.587Z,14.30
2019-01-20T05:02:49.908Z,15.80
2019-01-20T05:03:50.561Z,15.40
2019-01-20T05:04:50.673Z,16.70
2019-01-20T05:05:50.892Z,13.80
2019-01-20T05:06:50.661Z,15.20
2019-01-20T05:07:51.007Z,16.40
2019-01-20T05:08:51.433Z,13.30
2019-01-20T05:09:51.775Z,15.90
2019-01-20T05:10:52.231Z,14.30
2019-01-20T05:11:53.070Z,16.20
2019-01-20T05:12:52.920Z,15.20
2019-01-20T05:13:53.240Z,25.60
2019-01-20T05:14:53.919Z,15.20
2019-01-20T05:15:53.753Z,12.20
2019-01-20T05:16:54.276Z,15.70
2019-01-20T05:17:54.032Z,14.00
2019-01-20T05:18:54.389Z,15.90
2019-01-20T05:19:54.703Z,14.20
2019-01-20T05:20:55.697Z,13.80
2019-01-20T05:21:55.498Z,14.70
2019-01-20T05:22:56.236Z,13.50
2019-01-20T05:23:56.433Z,14.30
2019-01-20T05:24:56.745Z,15.10
2019-01-20T05:25:57.060Z,13.40
2019-01-20T05:26:57.478Z,15.60
2019-01-20T05:27:57.893Z,14.90
2019-01-20T05:28:58.053Z,13.10
2019-01-20T05:29:58.212Z,14.30
2019-01-20T05:30:58.320Z,14.20
2019-01-20T05:31:58.431Z,12.70
2019-01-20T05:32:58.642Z,13.70
2019-01-20T05:33:58.863Z,13.70
2019-01-20T05:34:59.168Z,16.20
2019-01-20T05:35:59.286Z,12.70
2019-01-20T05:36:59.281Z,12.70
2019-01-20T05:37:59.776Z,14.50
2019-01-20T05:39:00.013Z,13.50
2019-01-20T05:40:00.326Z,13.30
2019-01-20T05:41:00.848Z,13.10
2019-01-20T05:42:00.851Z,12.80
2019-01-20T05:43:01.113Z,13.70
2019-01-20T05:44:01.332Z,15.20
2019-01-20T05:45:01.630Z,14.80
2019-01-20T05:46:01.492Z,14.20
2019-01-20T05:47:02.728Z,12.40
2019-01-20T05:48:01.987Z,14.60
2019-01-20T05:49:03.048Z,15.40
2019-01-20T05:50:02.754Z,12.50
2019-01-20T05:51:03.124Z,13.80
2019-01-20T05:52:03.868Z,13.70
2019-01-20T05:53:03.213Z,14.20
2019-01-20T05:54:03.869Z,14.20
2019-01-20T05:55:04.025Z,14.40
2019-01-20T05:56:04.349Z,14.30
2019-01-20T05:57:04.558Z,14.80
2019-01-20T05:58:04.567Z,16.40
2019-01-20T05:59:04.392Z,15.50
2019-01-20T06:00:04.872Z,14.40
2019-01-20T06:01:04.815Z,15.60
2019-01-20T06:02:05.127Z,14.50
2019-01-20T06:03:05.697Z,15.00
2019-01-20T06:04:05.812Z,16.70
2019-01-20T06:05:05.659Z,14.70
2019-01-20T06:06:06.526Z,13.80
2019-01-20T06:07:06.398Z,13.80
2019-01-20T06:08:06.725Z,15.60
2019-01-20T06:09:07.132Z,15.80
2019-01-20T06:10:07.769Z,15.30
2019-01-20T06:11:08.102Z,16.20
2019-01-20T06:12:07.958Z,15.70
2019-01-20T06:13:08.279Z,13.90
2019-01-20T06:14:08.842Z,17.00
2019-01-20T06:15:08.709Z,15.80
2019-01-20T06:16:09.286Z,13.70
2019-01-20T06:17:09.143Z,16.40
2019-01-20T06:18:09.138Z,13.90
2019-01-20T06:19:09.663Z,16.20
2019-01-20T06:20:09.456Z,14.70
2019-01-20T06:21:10.119Z,13.90
2019-01-20T06:22:09.984Z,16.60
2019-01-20T06:23:11.152Z,17.00
2019-01-20T06:24:11.262Z,14.40
2019-01-20T06:25:11.585Z,14.90
2019-01-20T06:26:11.993Z,18.50
2019-01-20T06:27:12.202Z,16.20
2019-01-20T06:28:12.514Z,19.90
2019-01-20T06:29:12.794Z,16.70
2019-01-20T06:30:13.374Z,18.10
2019-01-20T06:31:13.153Z,15.90
2019-01-20T06:32:13.260Z,19.60
2019-01-20T06:33:13.349Z,15.90
2019-01-20T06:34:13.475Z,13.80
2019-01-20T06:35:13.692Z,15.40
2019-01-20T06:36:13.837Z,16.60
2019-01-20T06:37:13.906Z,16.10
2019-01-20T06:38:16.546Z,16.60
2019-01-20T06:39:14.029Z,16.40
2019-01-20T06:40:14.652Z,17.10
2019-01-20T06:41:14.852Z,17.70
2019-01-20T06:42:14.658Z,16.20
2019-01-20T06:43:14.904Z,16.60
2019-01-20T06:44:15.495Z,16.90
2019-01-20T06:45:15.786Z,17.50
2019-01-20T06:46:15.611Z,16.20
2019-01-20T06:47:15.954Z,16.50
2019-01-20T06:48:16.068Z,15.70
2019-01-20T06:49:16.448Z,19.10
2019-01-20T06:50:16.854Z,13.90
2019-01-20T06:51:16.349Z,16.20
2019-01-20T06:52:16.613Z,18.50
2019-01-20T06:53:16.922Z,15.50
2019-01-20T06:54:17.239Z,16.10
2019-01-20T06:55:18.122Z,17.50
2019-01-20T06:56:17.979Z,17.20
2019-01-20T06:57:18.641Z,15.50
2019-01-20T06:58:18.748Z,15.00
2019-01-20T06:59:18.589Z,17.10
2019-01-20T07:00:19.035Z,16.40
2019-01-20T07:01:19.045Z,16.40
2019-01-20T07:02:19.805Z,17.70
2019-01-20T07:03:19.586Z,15.50
2019-01-20T07:04:19.965Z,15.30
2019-01-20T07:05:20.640Z,17.70
2019-01-20T07:06:20.509Z,18.10
2019-01-20T07:07:21.146Z,17.00
2019-01-20T07:08:21.045Z,15.90
2019-01-20T07:09:21.671Z,17.70
2019-01-20T07:10:21.726Z,16.90
2019-01-20T07:11:21.943Z,19.50
2019-01-20T07:12:21.816Z,15.90
2019-01-20T07:13:22.433Z,18.60
2019-01-20T07:14:22.447Z,17.20
2019-01-20T07:15:22.813Z,18.40
2019-01-20T07:16:23.144Z,17.30
2019-01-20T07:17:23.897Z,16.10
2019-01-20T07:18:23.834Z,20.00
2019-01-20T07:19:24.283Z,17.90
2019-01-20T07:20:24.948Z,15.10
2019-01-20T07:21:25.057Z,16.80
2019-01-20T07:22:25.363Z,15.60
2019-01-20T07:23:25.468Z,15.40
2019-01-20T07:24:26.089Z,18.20
2019-01-20T07:25:26.301Z,18.00
2019-01-20T07:26:26.521Z,16.70
2019-01-20T07:27:26.950Z,16.90
2019-01-20T07:28:27.559Z,18.60
2019-01-20T07:29:27.557Z,15.80
2019-01-20T07:30:28.074Z,17.40
2019-01-20T07:31:27.988Z,17.90
2019-01-20T07:32:28.294Z,18.50
2019-01-20T07:33:28.505Z,18.20
2019-01-20T07:34:28.941Z,15.80
2019-01-20T07:35:28.826Z,17.10
2019-01-20T07:36:28.839Z,17.70
2019-01-20T07:37:28.942Z,16.90
2019-01-20T07:38:29.080Z,19.20
2019-01-20T07:39:29.161Z,16.30
2019-01-20T07:40:29.562Z,17.70
2019-01-20T07:41:30.107Z,19.60
2019-01-20T07:42:32.669Z,16.90
2019-01-20T07:43:30.454Z,21.60
2019-01-20T07:44:30.798Z,20.40
2019-01-20T07:45:31.190Z,15.20
2019-01-20T07:46:31.472Z,17.40
2019-01-20T07:47:31.664Z,15.40
2019-01-20T07:48:31.636Z,13.80
2019-01-20T07:49:32.064Z,16.60
2019-01-20T07:50:32.664Z,16.70
2019-01-20T07:51:32.470Z,18.10
2019-01-20T07:52:32.939Z,15.90
2019-01-20T07:53:33.552Z,17.10
2019-01-20T07:54:33.386Z,15.00
2019-01-20T07:55:33.715Z,16.30
2019-01-20T07:56:34.138Z,17.90
2019-01-20T07:57:34.441Z,17.60
2019-01-20T07:58:34.751Z,16.70
2019-01-20T07:59:35.080Z,15.60
2019-01-20T08:00:38.485Z,16.30
2019-01-20T08:02:35.907Z,17.10
2019-01-20T08:03:36.319Z,15.30
2019-01-20T08:04:36.893Z,17.60
2019-01-20T08:05:37.320Z,18.60
2019-01-20T08:06:37.538Z,19.20
2019-01-20T08:07:37.375Z,16.50
2019-01-20T08:08:37.935Z,17.70
2019-01-20T08:09:37.805Z,19.10
2019-01-20T08:10:38.381Z,19.10
2019-01-20T08:11:38.224Z,16.90
2019-01-20T08:12:38.627Z,17.60
2019-01-20T08:13:39.151Z,17.80
2019-01-20T08:14:39.581Z,16.60
2019-01-20T08:15:40.358Z,17.90
2019-01-20T08:16:41.071Z,16.60
2019-01-20T08:17:41.285Z,19.00
2019-01-20T08:18:41.819Z,18.90
2019-01-20T08:19:42.221Z,18.20
2019-01-20T08:20:42.635Z,16.30
2019-01-20T08:21:43.050Z,16.20
2019-01-20T08:22:43.260Z,20.20
2019-01-20T08:23:43.694Z,20.10
2019-01-20T08:24:43.785Z,17.90
2019-01-20T08:25:43.895Z,19.00
2019-01-20T08:26:43.904Z,15.40
2019-01-20T08:27:44.418Z,16.50
2019-01-20T08:28:44.433Z,17.30
2019-01-20T08:29:44.427Z,19.30
2019-01-20T08:30:44.705Z,13.90
2019-01-20T08:31:44.954Z,17.60
2019-01-20T08:32:45.169Z,15.80
2019-01-20T08:33:45.387Z,15.60
2019-01-20T08:34:45.783Z,15.90
2019-01-20T08:35:46.112Z,15.40
2019-01-20T08:36:46.354Z,15.80
2019-01-20T08:37:46.467Z,17.00
2019-01-20T08:38:46.721Z,16.90
2019-01-20T08:39:46.766Z,15.60
2019-01-20T08:40:46.546Z,16.10
2019-01-20T08:41:46.872Z,16.30
2019-01-20T08:42:47.221Z,17.20
2019-01-20T08:43:47.595Z,15.90
2019-01-20T08:44:47.856Z,17.70
2019-01-20T08:45:48.173Z,14.50
2019-01-20T08:46:48.839Z,18.00
2019-01-20T08:47:48.939Z,16.40
2019-01-20T08:48:49.403Z,15.30
2019-01-20T08:49:49.742Z,16.00
2019-01-20T08:50:50.069Z,17.50
2019-01-20T08:51:50.615Z,14.00
2019-01-20T08:52:50.462Z,16.10
2019-01-20T08:53:51.006Z,16.30
2019-01-20T08:54:50.782Z,16.10
2019-01-20T08:55:51.106Z,16.50
2019-01-20T08:56:51.781Z,17.20
2019-01-20T08:57:51.982Z,14.20
2019-01-20T08:58:51.816Z,16.40
2019-01-20T08:59:52.048Z,19.30
2019-01-20T09:00:52.306Z,16.50
2019-01-20T09:01:52.701Z,16.20
2019-01-20T09:02:52.996Z,17.40
2019-01-20T09:03:53.317Z,18.50
2019-01-20T09:04:53.624Z,17.50
2019-01-20T09:05:54.046Z,15.60
2019-01-20T09:06:54.433Z,14.50
2019-01-20T09:07:55.229Z,15.60
2019-01-20T09:08:55.340Z,16.70
2019-01-20T09:09:55.754Z,15.00
2019-01-20T09:10:56.582Z,18.40
2019-01-20T09:11:57.103Z,16.80
2019-01-20T09:12:57.007Z,22.10
2019-01-20T09:13:57.423Z,16.20
2019-01-20T09:14:57.941Z,15.00
2019-01-20T09:15:57.824Z,17.00
2019-01-20T09:16:58.001Z,18.00
2019-01-20T09:17:58.401Z,17.80
2019-01-20T09:18:58.375Z,19.40
2019-01-20T09:19:58.794Z,18.50
2019-01-20T09:20:58.403Z,18.50
2019-01-20T09:21:59.110Z,16.20
2019-01-20T09:22:59.274Z,18.20
2019-01-20T09:23:59.419Z,17.60
2019-01-20T09:24:59.388Z,16.80
2019-01-20T09:25:59.953Z,17.40
2019-01-20T09:26:59.961Z,17.70
2019-01-20T09:27:59.763Z,17.00
2019-01-20T09:28:59.973Z,19.80
2019-01-20T09:30:00.381Z,19.70
2019-01-20T09:31:00.601Z,19.30
2019-01-20T09:32:01.103Z,18.80
2019-01-20T09:33:01.425Z,19.80
2019-01-20T09:34:01.649Z,16.50
2019-01-20T09:35:01.959Z,17.90
2019-01-20T09:36:02.593Z,20.90
2019-01-20T09:37:02.842Z,18.80
2019-01-20T09:38:03.214Z,20.00
2019-01-20T09:39:03.334Z,18.20
2019-01-20T09:40:03.817Z,21.80
2019-01-20T09:41:05.156Z,19.50
2019-01-20T09:42:04.247Z,22.10
2019-01-20T09:43:04.675Z,16.60
2019-01-20T09:44:04.269Z,16.30
2019-01-20T09:45:04.250Z,21.00
2019-01-20T09:46:04.437Z,18.90
2019-01-20T09:47:04.421Z,20.20
2019-01-20T09:48:04.770Z,16.80
2019-01-20T09:49:05.029Z,18.40
2019-01-20T09:51:05.561Z,17.70
2019-01-20T09:52:05.566Z,18.60
2019-01-20T09:53:05.912Z,20.10
2019-01-20T09:54:06.223Z,18.80
2019-01-20T09:55:06.543Z,19.40
2019-01-20T09:56:07.013Z,18.70
2019-01-20T09:57:07.526Z,18.40
2019-01-20T09:58:07.377Z,19.10
2019-01-20T09:59:07.919Z,18.40
2019-01-20T10:00:07.796Z,17.90
2019-01-20T10:01:08.237Z,17.90
2019-01-20T10:02:08.542Z,18.50
2019-01-20T10:03:16.043Z,19.10
2019-01-20T10:04:09.251Z,19.10
2019-01-20T10:05:09.938Z,19.30
2019-01-20T10:06:09.777Z,18.60
2019-01-20T10:07:10.987Z,17.50
2019-01-20T10:08:11.005Z,18.80
2019-01-20T10:09:11.715Z,18.40
2019-01-20T10:10:11.405Z,19.10
2019-01-20T10:11:11.415Z,18.60
2019-01-20T10:13:11.952Z,17.40
2019-01-20T10:14:11.841Z,17.50
2019-01-20T10:15:12.259Z,20.10
2019-01-20T10:16:12.876Z,17.40
2019-01-20T10:17:12.789Z,17.70
2019-01-20T10:18:13.054Z,16.30
2019-01-20T10:19:13.205Z,19.90
2019-01-20T10:20:13.620Z,18.80
2019-01-20T10:21:13.727Z,16.60
2019-01-20T10:22:14.056Z,20.80
2019-01-20T10:23:14.139Z,19.50
2019-01-20T10:24:14.360Z,16.60
2019-01-20T10:25:15.178Z,16.70
2019-01-20T10:26:14.524Z,19.00
2019-01-20T10:27:14.802Z,16.40
2019-01-20T10:28:14.991Z,18.70
2019-01-20T10:29:15.591Z,20.60
2019-01-20T10:30:15.516Z,17.80
2019-01-20T10:31:15.890Z,18.80
2019-01-20T10:32:16.068Z,17.20
2019-01-20T10:33:16.111Z,17.90
2019-01-20T10:34:16.159Z,17.70
2019-01-20T10:35:16.680Z,18.00
2019-01-20T10:36:16.136Z,19.20
2019-01-20T10:37:17.017Z,20.00
2019-01-20T10:38:16.910Z,20.70
2019-01-20T10:39:17.188Z,20.70
2019-01-20T10:40:17.680Z,17.90
2019-01-20T10:41:18.044Z,19.30
2019-01-20T10:42:18.792Z,17.80
2019-01-20T10:43:18.665Z,17.90
2019-01-20T10:44:18.925Z,18.10
2019-01-20T10:45:19.251Z,19.80
2019-01-20T10:46:19.786Z,19.00
2019-01-20T10:47:20.147Z,19.20
2019-01-20T10:48:19.911Z,20.10
2019-01-20T10:49:20.202Z,18.40
2019-01-20T10:50:20.672Z,20.80
2019-01-20T10:51:21.043Z,17.60
2019-01-20T10:52:21.465Z,19.00
2019-01-20T10:53:22.147Z,20.80
2019-01-20T10:54:22.033Z,21.00
2019-01-20T10:55:22.861Z,20.30
2019-01-20T10:56:22.711Z,20.80
2019-01-20T10:57:22.987Z,20.50
2019-01-20T10:58:23.252Z,19.40
2019-01-20T10:59:23.786Z,20.00
2019-01-20T11:00:23.848Z,21.60
2019-01-20T11:01:23.806Z,22.70
2019-01-20T11:02:24.125Z,21.40
2019-01-20T11:03:23.993Z,20.60
2019-01-20T11:04:24.300Z,20.00
2019-01-20T11:05:30.354Z,21.30
2019-01-20T11:06:24.866Z,21.70
2019-01-20T11:07:25.703Z,22.70
2019-01-20T11:08:26.238Z,20.20
2019-01-20T11:09:26.535Z,18.70
2019-01-20T11:10:27.083Z,18.40
2019-01-20T11:11:26.868Z,17.40
2019-01-20T11:12:27.370Z,19.40
2019-01-20T11:13:27.905Z,19.30
2019-01-20T11:14:27.803Z,18.40
2019-01-20T11:15:28.215Z,19.80
2019-01-20T11:16:28.634Z,18.70
2019-01-20T11:17:28.748Z,19.00
2019-01-20T11:18:29.065Z,19.20
2019-01-20T11:19:29.109Z,18.20
2019-01-20T11:20:29.171Z,19.30
2019-01-20T11:21:29.286Z,19.70
2019-01-20T11:22:29.503Z,21.90
2019-01-20T11:23:29.506Z,19.80
2019-01-20T11:24:29.806Z,19.30
2019-01-20T11:25:30.222Z,20.00
2019-01-20T11:26:30.344Z,18.50
2019-01-20T11:27:30.715Z,20.80
2019-01-20T11:28:31.041Z,20.40
2019-01-20T11:29:31.184Z,19.20
2019-01-20T11:30:31.335Z,18.70
2019-01-20T11:31:31.552Z,21.20
2019-01-20T11:32:31.590Z,19.30
2019-01-20T11:33:31.463Z,21.00
2019-01-20T11:34:31.757Z,19.50
2019-01-20T11:35:32.439Z,21.30
2019-01-20T11:36:32.304Z,20.30
2019-01-20T11:37:32.692Z,20.30
2019-01-20T11:38:32.997Z,19.10
2019-01-20T11:39:33.289Z,21.20
2019-01-20T11:40:34.284Z,21.50
2019-01-20T11:41:33.910Z,19.50
2019-01-20T11:42:33.678Z,19.70
2019-01-20T11:43:34.330Z,21.90
2019-01-20T11:45:34.234Z,23.90
2019-01-20T11:46:34.648Z,19.80
2019-01-20T11:47:41.789Z,20.50
2019-01-20T11:48:35.384Z,18.90
2019-01-20T11:49:35.974Z,20.60
2019-01-20T11:50:35.908Z,23.50
2019-01-20T11:51:36.447Z,20.00
2019-01-20T11:52:39.838Z,18.40
2019-01-20T11:53:36.752Z,19.30
2019-01-20T11:54:37.113Z,21.90
2019-01-20T11:55:37.513Z,28.20
2019-01-20T11:57:37.847Z,20.20
2019-01-20T11:58:38.185Z,19.20
2019-01-20T11:59:38.458Z,20.50
2019-01-20T12:00:39.362Z,20.40
2019-01-20T12:01:39.416Z,20.50
2019-01-20T12:02:39.304Z,20.90
2019-01-20T12:03:40.406Z,21.80
2019-01-20T12:04:39.740Z,21.90
2019-01-20T12:05:40.316Z,19.70
2019-01-20T12:06:41.549Z,20.70
2019-01-20T12:08:41.870Z,24.30
2019-01-20T12:09:42.399Z,21.50
2019-01-20T12:10:42.191Z,20.00
2019-01-20T12:11:42.610Z,20.90
2019-01-20T12:12:43.126Z,19.60
2019-01-20T12:13:43.436Z,19.80
2019-01-20T12:14:43.659Z,20.70
2019-01-20T12:15:43.877Z,20.60
2019-01-20T12:16:43.874Z,19.10
2019-01-20T12:17:44.607Z,20.40
2019-01-20T12:18:44.512Z,20.20
2019-01-20T12:19:44.779Z,22.70
2019-01-20T12:20:45.444Z,19.40
2019-01-20T12:21:45.235Z,19.80
2019-01-20T12:22:45.532Z,19.50
2019-01-20T12:23:45.899Z,20.70
2019-01-20T12:24:46.233Z,19.40
2019-01-20T12:25:46.299Z,19.50
2019-01-20T12:26:46.284Z,19.60
2019-01-20T12:27:47.165Z,19.10
2019-01-20T12:28:47.254Z,17.60
2019-01-20T12:29:51.752Z,19.70
2019-01-20T12:30:47.566Z,18.30
2019-01-20T12:31:47.927Z,18.80
2019-01-20T12:32:48.219Z,16.60
2019-01-20T12:33:49.067Z,19.40
2019-01-20T12:34:49.043Z,18.50
2019-01-20T12:35:49.365Z,17.80
2019-01-20T12:36:50.139Z,17.50
2019-01-20T12:37:50.254Z,19.50
2019-01-20T12:38:50.206Z,19.90
2019-01-20T12:39:50.490Z,20.00
2019-01-20T12:40:50.832Z,19.00
2019-01-20T12:41:51.270Z,18.60
2019-01-20T12:42:51.930Z,17.30
2019-01-20T12:43:51.763Z,18.50
2019-01-20T12:44:52.529Z,17.60
2019-01-20T12:45:52.219Z,17.10
2019-01-20T12:46:52.704Z,18.30
2019-01-20T12:47:53.154Z,16.60
2019-01-20T12:48:53.158Z,17.00
2019-01-20T12:49:53.665Z,17.80
2019-01-20T12:50:54.490Z,18.40
2019-01-20T12:51:54.711Z,17.60
2019-01-20T12:52:54.747Z,20.00
2019-01-20T12:53:55.686Z,17.90
2019-01-20T12:54:56.411Z,18.70
2019-01-20T12:55:57.020Z,20.10
2019-01-20T12:56:57.396Z,20.60
2019-01-20T12:57:57.603Z,16.80
2019-01-20T12:58:57.863Z,18.30
2019-01-20T12:59:58.105Z,18.80
2019-01-20T13:00:58.342Z,17.00
2019-01-20T13:01:58.602Z,17.40
2019-01-20T13:02:58.816Z,18.70
2019-01-20T13:03:59.025Z,18.10